Time;durP1;ratioP1;P1;durP2;ratioP2;P2;SDS_P1;SDS_P2;PMS_P1;PMS_P2;Temp;Humidity;BMP_temperature;BMP_pressure;BME280_temperature;BME280_humidity;BME280_pressure;Samples;Min_cycle;Max_cycle;Signal;HPM_P1;HPM_P2
2022/01/11 00:02:18;;;;;;;35.63;17.88;;;-0.50;93.10;;;;;;5021139;28;20108;-69
2022/01/11 00:04:44;;;;;;;27.08;14.90;;;-0.50;93.30;;;;;;5015713;28;20037;-69
2022/01/11 00:07:13;;;;;;;45.55;19.33;;;-0.50;92.90;;;;;;5011005;28;20030;-69
2022/01/11 00:09:41;;;;;;;38.15;18.77;;;-0.50;93.30;;;;;;5019172;28;20033;-69
2022/01/11 00:12:08;;;;;;;27.67;15.85;;;-0.50;93.20;;;;;;5027530;28;20024;-70
2022/01/11 00:14:35;;;;;;;33.00;16.95;;;-0.50;93.00;;;;;;5025576;28;20017;-70
2022/01/11 00:17:02;;;;;;;41.00;21.60;;;-0.30;91.90;;;;;;5025117;28;20140;-69
2022/01/11 00:19:29;;;;;;;35.80;19.13;;;-0.20;92.20;;;;;;5031266;28;20036;-69
2022/01/11 00:21:55;;;;;;;55.20;23.23;;;-0.20;92.60;;;;;;5031800;28;22361;-69
2022/01/11 00:24:28;;;;;;;33.75;18.38;;;-0.20;93.50;;;;;;5030454;28;20373;-69
2022/01/11 00:27:05;;;;;;;28.05;16.45;;;-0.30;93.40;;;;;;5014209;28;20330;-68
2022/01/11 00:29:33;;;;;;;45.65;19.38;;;-0.30;93.40;;;;;;5022586;28;20037;-68
2022/01/11 00:32:04;;;;;;;38.63;18.30;;;-0.30;94.10;;;;;;5030080;28;20014;-69
2022/01/11 00:34:40;;;;;;;35.85;19.52;;;-0.40;94.10;;;;;;5032961;28;20026;-68
2022/01/11 00:37:08;;;;;;;38.53;19.92;;;-0.40;94.10;;;;;;5021395;28;20022;-69
2022/01/11 00:39:35;;;;;;;37.05;18.52;;;-0.40;93.60;;;;;;5026547;28;20284;-69
2022/01/11 00:42:03;;;;;;;42.05;19.77;;;-0.50;93.80;;;;;;5021789;28;20025;-68
2022/01/11 00:44:29;;;;;;;33.92;19.05;;;-0.50;93.50;;;;;;5034054;28;20414;-68
2022/01/11 00:46:55;;;;;;;30.02;17.77;;;-0.40;92.30;;;;;;5031713;28;20064;-68
2022/01/11 00:49:21;;;;;;;35.80;18.65;;;-0.30;92.10;;;;;;5028476;28;20025;-69
2022/01/11 00:51:48;;;;;;;40.60;19.58;;;-0.30;93.60;;;;;;5035887;28;20025;-70
2022/01/11 00:54:22;;;;;;;30.77;17.67;;;-0.30;93.80;;;;;;5028919;28;20036;-69
2022/01/11 00:56:47;;;;;;;31.42;17.13;;;-0.40;93.50;;;;;;5035363;28;20029;-69
2022/01/11 00:59:16;;;;;;;30.55;17.13;;;-0.30;93.40;;;;;;5029156;28;20030;-68
2022/01/11 01:01:42;;;;;;;36.35;18.45;;;-0.20;92.40;;;;;;5022982;28;20441;-69
2022/01/11 01:04:08;;;;;;;35.63;17.80;;;-0.20;93.00;;;;;;5023360;28;20112;-70
2022/01/11 01:06:55;;;;;;;36.72;17.52;;;-0.10;93.20;;;;;;5022214;28;20312;-70
2022/01/11 01:09:21;;;;;;;41.80;20.67;;;-0.10;92.60;;;;;;5026507;28;20109;-69
2022/01/11 01:11:47;;;;;;;41.67;20.75;;;0.00;93.00;;;;;;5024632;28;20080;-69
2022/01/11 01:14:13;;;;;;;40.92;19.67;;;-0.10;93.80;;;;;;5019644;28;20061;-68
2022/01/11 01:16:43;;;;;;;45.75;21.13;;;-0.10;93.20;;;;;;5033976;28;20116;-70
2022/01/11 01:19:09;;;;;;;45.72;21.42;;;-0.10;93.80;;;;;;5032649;28;20037;-68
2022/01/11 01:21:41;;;;;;;38.13;20.10;;;-0.10;93.70;;;;;;5027881;28;20895;-69
2022/01/11 01:24:09;;;;;;;35.35;19.23;;;-0.10;93.40;;;;;;5018924;28;20327;-69
2022/01/11 01:26:35;;;;;;;44.92;21.15;;;-0.10;92.90;;;;;;5036479;28;20022;-68
2022/01/11 01:29:04;;;;;;;42.75;21.92;;;0.00;93.10;;;;;;5036383;28;20080;-69
2022/01/11 01:31:31;;;;;;;37.03;19.30;;;0.00;93.20;;;;;;5034901;28;20159;-69
2022/01/11 01:33:57;;;;;;;52.03;22.48;;;0.00;93.20;;;;;;5035215;28;20036;-69
2022/01/11 01:36:23;;;;;;;45.28;22.40;;;0.00;93.80;;;;;;5037146;28;20377;-69
2022/01/11 01:38:52;;;;;;;49.80;21.73;;;-0.10;93.90;;;;;;5036599;28;20426;-70
2022/01/11 01:41:22;;;;;;;46.17;21.52;;;-0.10;93.60;;;;;;5035978;28;20037;-69
2022/01/11 01:43:52;;;;;;;46.33;22.90;;;-0.20;93.70;;;;;;5036195;28;20019;-69
2022/01/11 01:46:17;;;;;;;50.42;22.50;;;-0.20;93.50;;;;;;5035295;28;20032;-70
2022/01/11 01:48:44;;;;;;;36.92;19.30;;;-0.20;93.70;;;;;;5028247;28;20137;-70
2022/01/11 01:51:11;;;;;;;52.72;24.92;;;-0.30;92.50;;;;;;5036334;28;21908;-70
2022/01/11 01:53:44;;;;;;;42.20;22.05;;;-0.20;93.20;;;;;;5035071;28;20567;-69
2022/01/11 01:56:10;;;;;;;59.67;27.15;;;-0.20;92.90;;;;;;5035642;28;20029;-70
2022/01/11 01:58:44;;;;;;;49.08;25.42;;;-0.30;93.60;;;;;;5036065;28;20029;-69
2022/01/11 02:01:14;;;;;;;45.47;23.80;;;-0.30;93.50;;;;;;5036637;28;20030;-70
2022/01/11 02:03:42;;;;;;;49.47;24.23;;;-0.30;93.40;;;;;;5034445;28;20018;-70
2022/01/11 02:06:15;;;;;;;48.35;24.00;;;-0.40;92.90;;;;;;5035747;28;20075;-69
2022/01/11 02:08:42;;;;;;;59.65;28.60;;;-0.30;92.00;;;;;;5035023;28;20025;-69
2022/01/11 02:11:09;;;;;;;52.33;26.35;;;-0.30;93.00;;;;;;5035490;28;20026;-69
2022/01/11 02:13:36;;;;;;;51.45;26.10;;;-0.40;92.90;;;;;;5034426;28;20048;-69
2022/01/11 02:16:03;;;;;;;57.88;29.13;;;-0.40;92.80;;;;;;5036127;28;20040;-70
2022/01/11 02:18:29;;;;;;;61.30;27.88;;;-0.40;93.10;;;;;;5033973;28;20033;-68
2022/01/11 02:20:58;;;;;;;47.38;22.40;;;-0.50;93.40;;;;;;5035118;28;20586;-69
2022/01/11 02:23:26;;;;;;;55.90;25.52;;;-0.50;92.90;;;;;;5027856;28;20075;-70
2022/01/11 02:25:51;;;;;;;57.55;26.40;;;-0.50;92.90;;;;;;5034932;28;20025;-69
2022/01/11 02:28:22;;;;;;;65.20;27.92;;;-0.60;93.20;;;;;;5035170;28;20349;-69
2022/01/11 02:30:48;;;;;;;76.82;31.10;;;-0.60;92.40;;;;;;5034007;28;20040;-70
2022/01/11 02:33:29;;;;;;;63.42;28.10;;;-0.60;92.80;;;;;;5034189;28;20060;-70
2022/01/11 02:35:54;;;;;;;72.43;34.97;;;-0.60;92.00;;;;;;5029837;28;20100;-69
2022/01/11 02:38:20;;;;;;;61.45;30.30;;;-0.60;91.90;;;;;;5030364;28;20105;-69
2022/01/11 02:40:46;;;;;;;76.72;35.95;;;-0.60;92.10;;;;;;5035429;28;20033;-69
2022/01/11 02:43:12;;;;;;;90.90;36.63;;;-0.60;91.90;;;;;;5035406;28;20022;-69
2022/01/11 02:45:37;;;;;;;86.60;35.03;;;-0.50;91.50;;;;;;5035935;28;20036;-69
2022/01/11 02:48:03;;;;;;;73.28;33.33;;;-0.50;91.70;;;;;;5032799;28;20025;-70
2022/01/11 02:50:29;;;;;;;92.20;37.38;;;-0.50;91.30;;;;;;5034068;28;20027;-70
2022/01/11 02:53:05;;;;;;;149.23;44.78;;;-0.50;90.60;;;;;;5035148;28;20029;-69
2022/01/11 02:55:37;;;;;;;198.88;50.42;;;-0.40;90.50;;;;;;5034525;28;20033;-69
2022/01/11 02:58:03;;;;;;;93.38;39.00;;;-0.50;90.60;;;;;;5034671;28;20037;-69
2022/01/11 03:00:29;;;;;;;77.65;35.63;;;-0.50;89.80;;;;;;5033030;28;20041;-69
2022/01/11 03:02:54;;;;;;;94.82;37.55;;;-0.40;90.20;;;;;;5033426;28;20025;-69
2022/01/11 03:05:21;;;;;;;102.47;34.90;;;-0.40;89.80;;;;;;5035170;28;20025;-69
2022/01/11 03:07:46;;;;;;;117.72;39.83;;;-0.30;89.30;;;;;;5034013;28;20031;-69
2022/01/11 03:12:51;;;;;;;111.40;42.08;;;-0.30;89.30;;;;;;5034577;28;20039;-70
2022/01/11 03:15:17;;;;;;;162.93;42.83;;;-0.30;89.40;;;;;;5034784;28;20498;-69
2022/01/11 03:17:43;;;;;;;213.43;49.08;;;-0.20;88.50;;;;;;5033909;28;20034;-69
2022/01/11 03:20:12;;;;;;;82.50;34.60;;;-0.20;89.10;;;;;;5032440;28;20022;-69
2022/01/11 03:22:38;;;;;;;97.88;38.08;;;-0.20;88.60;;;;;;5033462;28;20049;-69
2022/01/11 03:25:05;;;;;;;147.20;40.25;;;-0.20;87.60;;;;;;5035197;28;20322;-70
2022/01/11 03:27:31;;;;;;;121.30;39.78;;;-0.10;88.20;;;;;;5034824;28;20030;-70
2022/01/11 03:29:57;;;;;;;87.28;35.15;;;-0.10;89.00;;;;;;5034596;28;20038;-69
2022/01/11 03:32:25;;;;;;;149.57;41.08;;;-0.10;89.00;;;;;;5029412;28;20048;-70
2022/01/11 03:34:51;;;;;;;172.98;46.22;;;-0.10;88.60;;;;;;5034227;28;20119;-70
2022/01/11 03:37:18;;;;;;;167.93;44.50;;;-0.10;88.70;;;;;;5034200;28;20052;-68
2022/01/11 03:39:47;;;;;;;140.50;43.92;;;-0.20;88.50;;;;;;5033300;28;20059;-68
2022/01/11 03:42:13;;;;;;;89.13;33.47;;;-0.20;88.40;;;;;;5034720;28;20053;-68
2022/01/11 03:44:38;;;;;;;113.65;37.92;;;-0.20;88.40;;;;;;5034397;28;20064;-68
2022/01/11 03:47:04;;;;;;;93.85;33.90;;;-0.10;87.80;;;;;;5034361;28;20032;-68
2022/01/11 03:49:30;;;;;;;91.35;37.60;;;-0.10;88.70;;;;;;5032083;28;20018;-69
2022/01/11 03:51:56;;;;;;;75.82;30.85;;;-0.10;88.70;;;;;;5035184;28;20112;-69
2022/01/11 03:54:42;;;;;;;65.85;30.55;;;-0.10;88.40;;;;;;5034100;28;20436;-70
2022/01/11 03:57:10;;;;;;;83.53;34.15;;;-0.10;88.60;;;;;;5033832;28;20033;-70
2022/01/11 03:59:36;;;;;;;82.30;33.88;;;-0.10;88.50;;;;;;5034329;28;20067;-70
2022/01/11 04:02:02;;;;;;;94.53;36.42;;;-0.10;88.30;;;;;;5033226;28;20204;-68
2022/01/11 04:04:28;;;;;;;85.78;32.55;;;-0.20;88.70;;;;;;5033166;28;20029;-69
2022/01/11 04:06:53;;;;;;;97.18;35.92;;;-0.20;88.60;;;;;;5035459;28;20307;-69
2022/01/11 04:09:20;;;;;;;90.35;32.55;;;-0.20;88.70;;;;;;5017132;28;20075;-70
2022/01/11 04:11:48;;;;;;;84.05;32.58;;;-0.30;88.50;;;;;;5038042;28;20037;-69
2022/01/11 04:14:14;;;;;;;126.57;37.30;;;-0.30;88.40;;;;;;5038691;28;20029;-69
2022/01/11 04:16:40;;;;;;;95.90;35.08;;;-0.20;87.90;;;;;;5038209;28;20033;-69
2022/01/11 04:19:05;;;;;;;118.53;38.53;;;-0.20;88.50;;;;;;5036427;28;20033;-69
2022/01/11 04:21:31;;;;;;;93.75;32.05;;;-0.20;88.00;;;;;;5037701;28;20370;-70
2022/01/11 04:23:57;;;;;;;72.72;28.27;;;-0.30;88.50;;;;;;5037772;28;20057;-69
2022/01/11 04:26:23;;;;;;;73.50;29.27;;;-0.30;89.20;;;;;;5037387;28;20358;-69
2022/01/11 04:28:48;;;;;;;99.68;34.75;;;-0.40;88.40;;;;;;5036303;28;20048;-69
2022/01/11 04:31:14;;;;;;;93.93;35.22;;;-0.40;88.20;;;;;;5037852;28;20080;-69
2022/01/11 04:33:43;;;;;;;91.43;33.25;;;-0.40;88.30;;;;;;5037263;28;20029;-69
2022/01/11 04:36:09;;;;;;;78.82;31.52;;;-0.40;88.20;;;;;;5037369;28;20025;-69
2022/01/11 04:38:35;;;;;;;102.10;36.25;;;-0.30;87.90;;;;;;5035567;28;20025;-68
2022/01/11 04:41:00;;;;;;;117.60;38.70;;;-0.20;87.50;;;;;;5037218;28;20036;-69
2022/01/11 04:43:26;;;;;;;200.88;47.03;;;-0.20;87.80;;;;;;5017749;28;20028;-69
2022/01/11 04:45:52;;;;;;;268.83;54.53;;;-0.10;88.00;;;;;;5037958;28;20026;-70
2022/01/11 04:48:20;;;;;;;161.35;47.40;;;-0.20;88.30;;;;;;5036258;28;20033;-69
2022/01/11 04:50:46;;;;;;;105.63;39.15;;;-0.20;87.80;;;;;;5019939;28;20079;-69
2022/01/11 04:53:12;;;;;;;104.25;40.30;;;-0.20;87.10;;;;;;5036798;28;20025;-69
2022/01/11 04:55:38;;;;;;;94.70;38.83;;;-0.20;87.70;;;;;;5036641;28;20036;-69
2022/01/11 04:58:04;;;;;;;90.55;36.58;;;-0.20;87.70;;;;;;5037199;28;20336;-69
2022/01/11 05:00:29;;;;;;;177.05;46.92;;;-0.20;87.70;;;;;;5037263;28;20296;-69
2022/01/11 05:02:59;;;;;;;93.78;36.58;;;-0.20;87.70;;;;;;5031639;28;20026;-69
2022/01/11 05:05:28;;;;;;;107.63;40.13;;;-0.20;87.90;;;;;;5036391;28;20167;-69
2022/01/11 05:07:54;;;;;;;111.57;38.90;;;-0.10;87.20;;;;;;5031450;28;20434;-68
2022/01/11 05:10:20;;;;;;;119.32;40.38;;;-0.10;87.60;;;;;;5036224;28;20048;-69
2022/01/11 05:12:45;;;;;;;149.50;46.75;;;-0.10;87.20;;;;;;5035423;28;20112;-69
2022/01/11 05:15:12;;;;;;;99.32;43.10;;;-0.10;87.80;;;;;;5035662;28;20048;-69
2022/01/11 05:17:39;;;;;;;120.50;44.78;;;-0.10;87.60;;;;;;5035119;28;20578;-69
2022/01/11 05:20:06;;;;;;;95.57;36.40;;;-0.10;87.80;;;;;;5024841;28;20037;-70
2022/01/11 05:22:33;;;;;;;176.15;48.30;;;0.00;86.80;;;;;;5019309;28;20124;-70
2022/01/11 05:24:59;;;;;;;93.68;37.13;;;-0.10;88.10;;;;;;5033944;28;20350;-70
2022/01/11 05:27:24;;;;;;;109.95;39.42;;;-0.10;88.00;;;;;;5035895;28;20040;-69
2022/01/11 05:29:50;;;;;;;76.90;34.10;;;-0.20;88.40;;;;;;5036834;28;20063;-70
2022/01/11 05:32:16;;;;;;;118.13;41.47;;;-0.20;87.90;;;;;;5034723;28;20021;-69
2022/01/11 05:34:42;;;;;;;83.72;33.25;;;-0.30;89.20;;;;;;5036160;28;20056;-70
2022/01/11 05:37:07;;;;;;;110.95;49.80;;;-0.40;89.40;;;;;;5036135;28;20025;-69
2022/01/11 05:39:33;;;;;;;174.15;58.55;;;-0.50;89.00;;;;;;5034771;28;20083;-70
2022/01/11 05:42:06;;;;;;;168.25;55.30;;;-0.50;88.60;;;;;;5036335;28;20112;-70
2022/01/11 05:44:32;;;;;;;124.43;43.65;;;-0.50;88.30;;;;;;5037256;28;20029;-70
2022/01/11 05:46:58;;;;;;;180.70;39.90;;;-0.50;88.40;;;;;;5036198;28;20025;-69
2022/01/11 05:49:23;;;;;;;190.25;43.13;;;-0.50;88.40;;;;;;5035744;28;20080;-69
2022/01/11 05:51:49;;;;;;;353.52;61.72;;;-0.50;88.20;;;;;;5036452;28;20029;-69
2022/01/11 05:54:15;;;;;;;159.35;47.38;;;-0.50;88.00;;;;;;5036885;28;20026;-70
2022/01/11 05:56:40;;;;;;;186.48;40.15;;;-0.50;87.70;;;;;;5036238;28;20161;-70
2022/01/11 05:59:06;;;;;;;226.02;47.30;;;-0.40;87.40;;;;;;5036709;28;20419;-70
2022/01/11 06:01:35;;;;;;;155.25;41.30;;;-0.40;87.40;;;;;;5036189;28;20033;-70
2022/01/11 06:04:01;;;;;;;112.07;39.10;;;-0.40;87.30;;;;;;5035727;28;20417;-70
2022/01/11 06:06:29;;;;;;;156.80;44.50;;;-0.40;87.50;;;;;;5036874;28;20030;-70
2022/01/11 06:08:55;;;;;;;190.60;44.20;;;-0.40;87.70;;;;;;5036724;28;20063;-70
2022/01/11 06:11:21;;;;;;;167.55;40.50;;;-0.40;87.70;;;;;;5036423;28;20104;-70
2022/01/11 06:13:50;;;;;;;84.90;37.20;;;-0.40;87.40;;;;;;5036987;28;20032;-69
2022/01/11 06:16:16;;;;;;;83.53;39.67;;;-0.40;87.30;;;;;;5036747;28;20029;-69
2022/01/11 06:18:43;;;;;;;106.00;42.90;;;-0.40;87.30;;;;;;5035572;28;20017;-70
2022/01/11 06:21:09;;;;;;;132.45;44.47;;;-0.40;87.10;;;;;;5035514;28;20406;-70
2022/01/11 06:23:38;;;;;;;201.15;44.33;;;-0.40;87.20;;;;;;5036615;28;20411;-70
2022/01/11 06:26:04;;;;;;;258.20;46.78;;;-0.50;87.50;;;;;;5018963;28;20029;-70
2022/01/11 06:28:30;;;;;;;417.95;53.13;;;-0.50;86.40;;;;;;5036421;28;20299;-70
2022/01/11 06:30:55;;;;;;;165.02;41.08;;;-0.50;87.20;;;;;;5035651;28;20491;-68
2022/01/11 06:33:24;;;;;;;226.98;46.20;;;-0.50;87.10;;;;;;5035283;28;20034;-69
2022/01/11 06:35:49;;;;;;;304.92;51.28;;;-0.50;86.70;;;;;;5035227;28;20029;-68
2022/01/11 06:38:16;;;;;;;154.80;42.13;;;-0.50;87.00;;;;;;5036484;28;20339;-69
2022/01/11 06:40:43;;;;;;;279.65;47.83;;;-0.40;86.50;;;;;;5035895;28;20064;-68
2022/01/11 06:43:10;;;;;;;250.27;50.97;;;-0.40;86.90;;;;;;5036160;28;20554;-70
2022/01/11 06:45:36;;;;;;;187.70;40.45;;;-0.50;87.10;;;;;;5036330;28;20370;-70
2022/01/11 06:48:02;;;;;;;106.20;38.33;;;-0.50;86.80;;;;;;5034764;28;20026;-69
2022/01/11 06:50:28;;;;;;;256.75;48.95;;;-0.40;85.40;;;;;;5036069;28;20088;-69
2022/01/11 06:52:53;;;;;;;149.88;41.45;;;-0.40;86.10;;;;;;5036071;28;20033;-70
2022/01/11 06:55:20;;;;;;;89.05;37.53;;;-0.40;87.00;;;;;;5036129;28;20529;-70
2022/01/11 06:57:47;;;;;;;95.20;38.03;;;-0.50;86.70;;;;;;5035651;28;20078;-69
2022/01/11 07:00:14;;;;;;;230.93;47.70;;;-0.40;86.20;;;;;;5033577;28;20034;-69
2022/01/11 07:02:40;;;;;;;98.18;40.15;;;-0.40;87.00;;;;;;5034626;28;20034;-69
2022/01/11 07:05:07;;;;;;;155.05;42.25;;;-0.50;87.40;;;;;;5036140;28;20033;-70
2022/01/11 07:07:35;;;;;;;276.83;54.10;;;-0.50;86.80;;;;;;5035209;28;20028;-69
2022/01/11 07:10:01;;;;;;;345.45;52.30;;;-0.60;86.70;;;;;;5035377;28;20022;-69
2022/01/11 07:12:27;;;;;;;192.07;47.28;;;-0.60;86.60;;;;;;5035731;28;20044;-70
2022/01/11 07:14:52;;;;;;;77.47;36.53;;;-0.60;86.50;;;;;;5034756;28;20431;-70
2022/01/11 07:17:20;;;;;;;111.95;37.75;;;-0.60;86.50;;;;;;5034670;28;20032;-69
2022/01/11 07:19:45;;;;;;;445.02;54.38;;;-0.50;86.50;;;;;;5035997;28;20029;-69
2022/01/11 07:22:20;;;;;;;313.60;49.85;;;-0.50;86.60;;;;;;5035920;28;20049;-69
2022/01/11 07:24:46;;;;;;;162.40;40.72;;;-0.50;86.00;;;;;;5020861;28;20041;-69
2022/01/11 07:27:12;;;;;;;147.40;39.85;;;-0.50;86.30;;;;;;5035561;28;20029;-70
2022/01/11 07:29:40;;;;;;;70.07;33.70;;;-0.50;86.40;;;;;;5032749;28;20024;-69
2022/01/11 07:32:09;;;;;;;110.18;39.53;;;-0.40;86.20;;;;;;5035782;28;20076;-69
2022/01/11 07:34:35;;;;;;;200.45;43.28;;;-0.40;85.80;;;;;;5034693;28;20021;-69
2022/01/11 07:37:00;;;;;;;154.38;40.72;;;-0.30;85.90;;;;;;5035706;28;20326;-70
2022/01/11 07:39:26;;;;;;;124.63;41.35;;;-0.30;86.20;;;;;;5035561;28;20132;-69
2022/01/11 07:41:51;;;;;;;212.85;47.25;;;-0.30;86.20;;;;;;5038421;28;20026;-69
2022/01/11 07:44:17;;;;;;;141.18;46.08;;;-0.20;86.20;;;;;;5039477;28;20025;-69
2022/01/11 07:46:46;;;;;;;276.77;55.72;;;-0.20;86.30;;;;;;5039964;28;20021;-69
2022/01/11 07:49:13;;;;;;;287.85;52.13;;;-0.20;86.00;;;;;;5038253;28;20048;-69
2022/01/11 07:51:38;;;;;;;150.32;43.25;;;-0.20;85.60;;;;;;5039584;28;20466;-69
2022/01/11 07:54:06;;;;;;;272.27;57.40;;;-0.20;85.70;;;;;;5039423;28;20034;-69
2022/01/11 07:56:32;;;;;;;148.50;47.50;;;-0.20;85.80;;;;;;5039264;28;20437;-69
2022/01/11 07:58:57;;;;;;;117.57;45.85;;;-0.20;85.60;;;;;;5039425;28;20041;-69
2022/01/11 08:01:23;;;;;;;151.55;50.08;;;-0.10;85.50;;;;;;5039104;28;20025;-69
2022/01/11 08:03:49;;;;;;;224.30;50.90;;;-0.10;85.30;;;;;;5037420;28;20407;-69
2022/01/11 08:06:16;;;;;;;137.52;44.65;;;0.00;85.60;;;;;;5039273;28;20021;-69
2022/01/11 08:08:42;;;;;;;138.20;45.72;;;0.00;85.80;;;;;;5037885;28;20496;-69
2022/01/11 08:11:08;;;;;;;93.03;40.15;;;0.10;86.00;;;;;;5039212;28;20034;-70
2022/01/11 08:13:34;;;;;;;76.80;36.45;;;0.10;85.70;;;;;;5021749;28;20037;-69
2022/01/11 08:16:00;;;;;;;141.23;48.58;;;0.20;85.50;;;;;;5038809;28;20354;-69
2022/01/11 08:18:25;;;;;;;87.22;39.20;;;0.30;85.80;;;;;;5037176;28;20026;-69
2022/01/11 08:20:51;;;;;;;84.28;40.60;;;0.30;85.50;;;;;;5038772;28;20025;-70
2022/01/11 08:23:17;;;;;;;100.03;43.88;;;0.40;85.60;;;;;;5039246;28;20029;-69
2022/01/11 08:25:42;;;;;;;106.60;45.42;;;0.40;86.00;;;;;;5038787;28;20358;-69
2022/01/11 08:28:09;;;;;;;113.93;46.17;;;0.60;85.10;;;;;;5039016;28;20022;-69
2022/01/11 08:30:36;;;;;;;112.18;44.00;;;0.50;86.30;;;;;;5038555;28;20026;-69
2022/01/11 08:33:04;;;;;;;90.57;40.65;;;0.40;86.50;;;;;;5037732;28;20318;-69
2022/01/11 08:35:31;;;;;;;97.00;41.15;;;0.50;86.00;;;;;;5038468;28;20022;-69
2022/01/11 08:37:58;;;;;;;107.78;47.00;;;0.70;85.50;;;;;;5038820;28;20033;-70
2022/01/11 08:40:25;;;;;;;112.63;45.70;;;0.70;87.40;;;;;;5038862;28;20036;-68
2022/01/11 08:42:52;;;;;;;81.18;41.47;;;0.70;88.50;;;;;;5038556;28;20288;-69
2022/01/11 08:45:18;;;;;;;94.22;45.05;;;0.80;87.40;;;;;;5038152;28;20075;-68
2022/01/11 08:47:44;;;;;;;72.55;37.42;;;0.80;88.20;;;;;;5037308;28;20327;-68
2022/01/11 08:50:14;;;;;;;56.13;32.33;;;0.90;88.80;;;;;;5038680;28;20022;-69
2022/01/11 08:52:41;;;;;;;64.25;35.70;;;1.00;89.90;;;;;;5037221;28;20146;-68
2022/01/11 08:55:09;;;;;;;74.97;38.35;;;1.20;89.10;;;;;;5038745;28;20022;-68
2022/01/11 08:57:35;;;;;;;76.32;39.53;;;1.30;90.40;;;;;;5038026;28;20429;-69
2022/01/11 09:00:06;;;;;;;76.93;39.20;;;1.40;92.10;;;;;;5038247;28;20057;-69
2022/01/11 09:02:37;;;;;;;64.30;35.33;;;1.50;93.00;;;;;;5035948;28;20759;-69
2022/01/11 09:05:03;;;;;;;71.20;37.67;;;1.60;93.80;;;;;;5038304;28;20029;-70
2022/01/11 09:07:32;;;;;;;70.05;36.25;;;1.60;96.00;;;;;;5037948;28;20062;-70
2022/01/11 09:09:57;;;;;;;66.93;35.85;;;1.60;96.30;;;;;;5020224;28;20029;-69
2022/01/11 09:12:23;;;;;;;65.70;34.70;;;1.60;96.70;;;;;;5037685;28;20163;-68
2022/01/11 09:14:51;;;;;;;62.90;34.17;;;1.70;96.80;;;;;;5037680;28;20029;-69
2022/01/11 09:17:17;;;;;;;59.28;31.75;;;2.00;96.90;;;;;;5036785;28;20049;-68
2022/01/11 09:19:43;;;;;;;52.72;29.85;;;2.30;97.40;;;;;;5037679;28;20414;-68
2022/01/11 09:22:08;;;;;;;39.40;21.55;;;2.60;98.00;;;;;;5037502;28;20048;-69
2022/01/11 09:24:36;;;;;;;23.08;12.68;;;2.50;98.00;;;;;;5037958;28;20111;-68
2022/01/11 09:27:04;;;;;;;23.10;14.00;;;2.60;98.00;;;;;;5038126;28;20068;-68
2022/01/11 09:29:37;;;;;;;41.95;21.85;;;2.60;98.00;;;;;;5038000;28;20357;-67
2022/01/11 09:32:04;;;;;;;22.17;12.00;;;2.80;98.00;;;;;;5037923;28;20384;-67
2022/01/11 09:34:30;;;;;;;15.93;9.60;;;2.80;98.00;;;;;;5035260;28;20033;-68
2022/01/11 09:36:56;;;;;;;15.68;9.02;;;3.00;98.00;;;;;;5037834;28;20021;-69
2022/01/11 09:39:22;;;;;;;16.17;9.52;;;3.10;98.00;;;;;;5037405;28;20060;-70
2022/01/11 09:41:48;;;;;;;17.90;10.02;;;3.20;98.00;;;;;;5019923;28;20333;-69
2022/01/11 09:44:13;;;;;;;16.98;10.50;;;3.40;97.40;;;;;;5036713;28;20092;-69
2022/01/11 09:46:42;;;;;;;27.70;15.45;;;3.30;96.60;;;;;;5037090;28;20025;-69
2022/01/11 09:49:10;;;;;;;35.50;17.48;;;3.30;97.30;;;;;;5036328;28;20022;-69
2022/01/11 09:51:40;;;;;;;32.67;19.25;;;3.20;98.00;;;;;;5037600;28;20044;-69
2022/01/11 09:54:08;;;;;;;39.67;21.67;;;3.30;98.00;;;;;;5036413;28;20056;-69
2022/01/11 09:56:37;;;;;;;38.13;20.83;;;3.40;98.00;;;;;;5037324;28;20025;-68
2022/01/11 09:59:05;;;;;;;37.63;21.65;;;3.40;98.00;;;;;;5037369;28;20112;-69
2022/01/11 10:01:36;;;;;;;39.45;20.05;;;3.40;98.00;;;;;;5036899;28;20112;-68
2022/01/11 10:04:06;;;;;;;36.72;20.17;;;3.50;98.00;;;;;;5036035;28;20101;-69
2022/01/11 10:06:37;;;;;;;42.47;21.30;;;3.60;98.00;;;;;;5035935;28;20116;-69
2022/01/11 10:09:22;;;;;;;35.10;18.98;;;3.50;98.00;;;;;;5036972;28;20025;-69
2022/01/11 10:11:56;;;;;;;35.60;18.40;;;3.60;98.00;;;;;;5037181;28;20044;-68
2022/01/11 10:14:31;;;;;;;36.72;20.70;;;3.70;98.00;;;;;;5036987;28;20034;-70
2022/01/11 10:17:41;;;;;;;37.95;21.13;;;3.70;98.00;;;;;;5035925;28;20040;-69
2022/01/11 10:20:15;;;;;;;39.35;20.35;;;3.80;98.00;;;;;;4950212;28;20046;-69
2022/01/11 10:23:02;;;;;;;36.97;20.33;;;4.00;98.00;;;;;;5016959;28;20057;-70
2022/01/11 10:25:29;;;;;;;38.33;20.38;;;4.10;97.70;;;;;;5017136;28;20065;-69
2022/01/11 10:28:04;;;;;;;32.95;19.15;;;4.10;97.70;;;;;;5017263;28;20435;-70
2022/01/11 10:30:33;;;;;;;34.88;20.70;;;4.30;97.40;;;;;;5021731;28;20021;-70
2022/01/11 10:33:04;;;;;;;34.47;18.20;;;4.40;97.30;;;;;;5035639;28;20071;-70
2022/01/11 10:35:42;;;;;;;25.20;13.70;;;4.80;96.30;;;;;;5036091;28;20028;-70
2022/01/11 10:38:13;;;;;;;19.85;10.32;;;5.00;94.70;;;;;;5036555;28;20025;-70
2022/01/11 10:40:42;;;;;;;18.00;11.75;;;5.50;90.70;;;;;;5036204;28;20040;-68
2022/01/11 10:43:20;;;;;;;16.73;9.93;;;5.90;88.10;;;;;;5036665;28;20065;-72
2022/01/11 10:45:47;;;;;;;19.00;9.75;;;6.10;86.40;;;;;;5036010;28;20025;-70
2022/01/11 10:48:15;;;;;;;21.75;12.10;;;6.00;86.40;;;;;;5035293;28;20022;-70
2022/01/11 10:51:02;;;;;;;14.50;9.00;;;5.70;87.20;;;;;;5035726;28;20137;-70
2022/01/11 10:53:38;;;;;;;11.20;6.57;;;5.30;87.40;;;;;;5016621;28;20033;-69
2022/01/11 10:56:11;;;;;;;8.82;5.28;;;5.50;87.60;;;;;;5030396;28;20132;-71
2022/01/11 10:58:37;;;;;;;10.98;5.95;;;6.00;84.10;;;;;;5036124;28;20037;-69
2022/01/11 11:01:04;;;;;;;8.48;4.68;;;5.90;83.00;;;;;;5018450;28;20418;-72
2022/01/11 11:03:33;;;;;;;8.10;4.97;;;6.10;84.50;;;;;;5034163;28;20026;-71
2022/01/11 11:06:00;;;;;;;6.03;3.47;;;6.20;80.50;;;;;;5035897;28;20410;-71
2022/01/11 11:08:45;;;;;;;6.70;3.13;;;6.60;80.60;;;;;;5035558;28;20025;-70
2022/01/11 11:11:20;;;;;;;5.07;2.60;;;7.30;79.40;;;;;;5035670;28;20119;-70
2022/01/11 11:13:48;;;;;;;7.97;3.60;;;8.00;79.20;;;;;;5036249;28;20029;-71
2022/01/11 11:16:18;;;;;;;5.60;2.60;;;8.00;75.40;;;;;;5034911;28;20076;-71
2022/01/11 11:18:53;;;;;;;5.28;2.95;;;8.20;75.70;;;;;;5033801;28;20037;-71
2022/01/11 11:21:23;;;;;;;5.65;2.30;;;8.50;74.50;;;;;;5035502;28;20037;-71
2022/01/11 11:23:59;;;;;;;4.72;2.90;;;8.10;71.60;;;;;;5035907;28;20452;-70
2022/01/11 11:26:27;;;;;;;4.65;2.42;;;7.20;75.50;;;;;;5018044;28;20116;-70
2022/01/11 11:28:53;;;;;;;5.22;2.50;;;7.60;74.20;;;;;;5035710;28;20419;-71
2022/01/11 11:31:19;;;;;;;5.32;2.60;;;7.80;75.30;;;;;;5035780;28;20033;-71
2022/01/11 11:33:45;;;;;;;4.50;2.47;;;7.80;74.80;;;;;;5032912;28;20358;-70
2022/01/11 11:36:15;;;;;;;4.75;2.30;;;7.90;73.70;;;;;;5035258;28;20414;-70
2022/01/11 11:38:48;;;;;;;5.75;2.42;;;8.30;73.80;;;;;;5035536;28;20037;-69
2022/01/11 11:41:15;;;;;;;3.92;2.17;;;8.60;73.30;;;;;;5018454;28;20453;-70
2022/01/11 11:43:43;;;;;;;3.40;1.80;;;9.20;70.30;;;;;;5035536;28;20120;-70
2022/01/11 11:46:09;;;;;;;4.63;2.40;;;9.30;69.80;;;;;;5035056;28;20287;-70
2022/01/11 11:48:34;;;;;;;6.15;2.05;;;8.80;70.60;;;;;;5034039;28;20025;-69
2022/01/11 11:51:06;;;;;;;4.45;2.10;;;9.00;70.90;;;;;;5035693;28;20296;-70
2022/01/11 11:53:39;;;;;;;4.65;2.10;;;9.20;69.40;;;;;;5035462;28;20032;-70
2022/01/11 11:56:19;;;;;;;4.45;2.03;;;9.10;69.60;;;;;;5035498;28;20178;-70
2022/01/11 11:58:55;;;;;;;4.15;2.08;;;8.20;72.10;;;;;;5035699;28;20030;-69
2022/01/11 12:01:45;;;;;;;6.00;2.05;;;7.40;73.40;;;;;;5034951;28;20367;-69
2022/01/11 12:04:39;;;;;;;3.92;2.20;;;6.60;75.70;;;;;;5034522;28;20093;-70
2022/01/11 12:07:36;;;;;;;5.53;2.50;;;6.20;77.50;;;;;;5034263;28;20113;-69
2022/01/11 12:10:07;;;;;;;5.05;2.90;;;5.90;78.30;;;;;;4995055;28;20033;-70
2022/01/11 12:12:51;;;;;;;4.47;2.53;;;5.50;79.20;;;;;;5015710;28;20022;-70
2022/01/11 12:15:33;;;;;;;4.15;2.50;;;4.90;79.80;;;;;;4999451;28;20156;-70
2022/01/11 12:17:58;;;;;;;7.07;2.80;;;4.60;81.90;;;;;;5033801;28;20017;-69
2022/01/11 12:20:39;;;;;;;6.13;2.88;;;4.40;81.50;;;;;;5035145;28;20036;-69
2022/01/11 12:23:06;;;;;;;6.10;3.35;;;4.40;81.70;;;;;;5014347;28;20069;-69
2022/01/11 12:25:37;;;;;;;5.03;2.50;;;4.30;82.50;;;;;;5021852;28;20453;-69
2022/01/11 12:28:05;;;;;;;4.72;2.78;;;4.40;81.80;;;;;;5035653;28;20068;-69
2022/01/11 12:30:33;;;;;;;5.45;3.03;;;4.80;81.90;;;;;;5038348;28;20033;-71
2022/01/11 12:33:10;;;;;;;5.43;3.00;;;5.20;80.80;;;;;;5036977;28;20052;-71
2022/01/11 12:35:51;;;;;;;5.47;2.70;;;5.30;81.90;;;;;;5038536;28;20025;-72
2022/01/11 12:38:17;;;;;;;5.15;3.17;;;5.60;79.20;;;;;;5021305;28;20033;-71
2022/01/11 12:40:44;;;;;;;5.53;2.80;;;5.40;80.10;;;;;;5037948;28;20099;-71